Turner, AR (72383)

1:03 PM CDT on September 02, 2014 (GMT -0500)
marianna,arrkansas | Change Station
CLOSE
Current Station
Personal Weather Station
Location: Marianna, AR
Elevation: 230 ft
Nearby Weather Stations

Elev 230 ft 34.77 °N, 90.77 °W | Updated 2 minutes ago

Mostly Cloudy
Mostly Cloudy
88.0 °F
Feels Like 102 °F
N
1.7
Wind Variable Wind from SW

Today
High -- | Low -- °F
--% Chance of Precip.
Yesterday
High -- | Low -- °F
Precip. -- in
6:37 AM 7:28 PM
First Quarter, 53% visible
Pressure 30.03 in
Visibility 10.0 miles
Clouds Few 2200 ft
Scattered Clouds 3400 ft
Heat Index 102 °F
Dew Point 78 °F
Humidity 73%
Rainfall 0.00 in
Snow Depth Not available.
UV 8 out of 12
Pollen 10.40 out of 12
Air Quality Not available.
Flu Activity Not available.
METAR KCKM 021755Z AUTO 00000KT 10SM FEW022 SCT034 30/24 A3003 RMK AO1

More Conditions Fewer Conditions

Pressure 30.03 in
Visibility 10.0 miles
Clouds Few 2200 ft
Scattered Clouds 3400 ft
Heat Index 102 °F
Dew Point 78 °F
Humidity 73%
Rainfall 0.00 in
Snow Depth Not available.
UV 8 out of 12
Pollen 10.40 out of 12
Air Quality Not available.
Flu Activity Not available.
METAR KCKM 021755Z AUTO 00000KT 10SM FEW022 SCT034 30/24 A3003 RMK AO1

More Conditions Fewer Conditions

10-Day Weather Forecast

Almanac

Astronomy

Sep. 02, 2014 Rise Set
Actual Time 6:37 AM CDT 7:28 PM CDT
Civil Twilight 6:12 AM CDT 7:54 PM CDT
Nautical Twilight 5:41 AM CDT 8:24 PM CDT
Astronomical Twilight 5:10 AM CDT 8:55 PM CDT
Moon 2:04 PM CDT No Moon Set
Length of Visible Light 13h 42m
Length of Day
12h 51m
Tomorrow will be 2m 3s shorter.
First Quarter, 53% of the Moon is Illuminated
Today
First Quarter
Sep 8
Full
Sep 15
Last Quarter
Sep 24
New
Oct 1
First Quarter

Today's Extremes

State Highs State Lows

Community

WunderPhotos

Upload Photos

1,749,724 photos uploaded!

WunderBlogs® & News

Nearby

Snow Depth

Station Depth Elevation
No new snow has been reported.

Earthquake Activity

City Distance Mag. Time & Date
Tiptonville, Tennessee 151 miles 2.9 11:19 PM CDT
2014-08-31
Minimum magnitude displayed is 2.5.

Coastal Water Temperatures

Place Temperature
No Stations Reporting

Nearby Weather Stations